createdAt,value
2022-10-20T00:01:23.849Z,12.00
2022-10-20T00:03:53.068Z,11.53
2022-10-20T00:06:23.789Z,12.50
2022-10-20T00:08:54.491Z,11.00
2022-10-20T00:11:24.328Z,11.67
2022-10-20T00:13:54.829Z,10.77
2022-10-20T00:16:24.676Z,11.40
2022-10-20T00:18:53.598Z,10.73
2022-10-20T00:21:23.829Z,11.47
2022-10-20T00:23:53.743Z,10.93
2022-10-20T00:26:24.567Z,11.67
2022-10-20T00:28:54.221Z,11.83
2022-10-20T00:31:24.130Z,11.10
2022-10-20T00:33:52.669Z,11.90
2022-10-20T00:36:23.239Z,11.60
2022-10-20T00:38:57.677Z,12.70
2022-10-20T00:41:26.153Z,12.90
2022-10-20T00:43:56.439Z,12.63
2022-10-20T00:46:27.869Z,12.33
2022-10-20T00:49:00.380Z,12.87
2022-10-20T00:51:30.811Z,12.33
2022-10-20T00:54:07.000Z,13.20
2022-10-20T00:56:36.304Z,12.83
2022-10-20T00:59:05.315Z,12.57
2022-10-20T01:01:34.171Z,12.43
2022-10-20T01:04:03.636Z,12.80
2022-10-20T01:06:32.219Z,13.33
2022-10-20T01:09:02.186Z,13.17
2022-10-20T01:11:39.822Z,12.83
2022-10-20T01:14:25.398Z,13.00
2022-10-20T01:17:03.080Z,12.67
2022-10-20T01:19:53.977Z,12.83
2022-10-20T01:22:41.108Z,12.83
2022-10-20T01:25:19.535Z,12.83
2022-10-20T01:27:51.715Z,13.23
2022-10-20T01:30:22.713Z,12.90
2022-10-20T01:33:05.361Z,13.10
2022-10-20T01:35:43.336Z,13.10
2022-10-20T01:38:19.103Z,12.57
2022-10-20T01:40:52.641Z,12.87
2022-10-20T01:43:25.354Z,14.13
2022-10-20T01:45:55.567Z,13.67
2022-10-20T01:48:28.730Z,13.53
2022-10-20T01:50:57.269Z,13.53
2022-10-20T01:53:25.750Z,13.60
2022-10-20T01:55:56.043Z,13.10
2022-10-20T01:58:53.950Z,12.90
2022-10-20T02:01:32.540Z,13.20
2022-10-20T02:04:03.658Z,13.57
2022-10-20T02:06:43.166Z,14.03
2022-10-20T02:09:18.349Z,11.50
2022-10-20T02:11:53.311Z,12.90
2022-10-20T02:14:24.557Z,12.73
2022-10-20T02:16:56.647Z,12.87
2022-10-20T02:19:27.737Z,13.40
2022-10-20T02:21:57.747Z,13.07
2022-10-20T02:24:30.089Z,12.90
2022-10-20T02:27:02.760Z,12.63
2022-10-20T02:29:38.698Z,13.43
2022-10-20T02:32:08.890Z,13.20
2022-10-20T02:34:40.994Z,13.30
2022-10-20T02:37:11.231Z,13.50
2022-10-20T02:39:40.023Z,12.80
2022-10-20T02:42:08.570Z,13.07
2022-10-20T02:44:38.319Z,13.40
2022-10-20T02:47:06.798Z,13.60
2022-10-20T02:49:35.154Z,13.10
2022-10-20T02:52:03.487Z,13.50
2022-10-20T02:54:31.723Z,13.50
2022-10-20T02:56:59.998Z,13.97
2022-10-20T02:59:28.316Z,13.60
2022-10-20T03:01:57.991Z,13.83
2022-10-20T03:06:54.807Z,13.90
2022-10-20T03:09:23.126Z,13.97
2022-10-20T03:11:51.407Z,14.03
2022-10-20T03:14:19.704Z,13.77
2022-10-20T03:16:47.927Z,14.27
2022-10-20T03:19:17.556Z,13.43
2022-10-20T03:21:46.322Z,14.37
2022-10-20T03:24:14.625Z,14.30
2022-10-20T03:26:42.982Z,14.20
2022-10-20T03:29:11.225Z,14.13
2022-10-20T03:31:39.592Z,13.67
2022-10-20T03:34:08.017Z,14.03
2022-10-20T03:36:37.577Z,14.50
2022-10-20T03:39:05.883Z,13.73
2022-10-20T03:41:34.106Z,13.80
2022-10-20T03:44:02.356Z,13.33
2022-10-20T03:46:30.597Z,13.30
2022-10-20T03:48:58.846Z,14.73
2022-10-20T03:51:27.198Z,14.93
2022-10-20T03:53:56.726Z,13.37
2022-10-20T03:56:24.997Z,13.37
2022-10-20T03:58:53.299Z,13.03
2022-10-20T04:01:25.590Z,13.23
2022-10-20T04:03:54.367Z,14.10
2022-10-20T04:06:22.756Z,15.40
2022-10-20T04:08:51.164Z,15.13
2022-10-20T04:11:20.815Z,16.30
2022-10-20T04:13:49.098Z,15.40
2022-10-20T04:16:17.361Z,15.53
2022-10-20T04:18:45.614Z,15.20
2022-10-20T04:21:13.872Z,14.70
2022-10-20T04:23:42.126Z,15.93
2022-10-20T04:26:11.380Z,15.00
2022-10-20T04:28:41.389Z,14.70
2022-10-20T04:31:10.854Z,14.93
2022-10-20T04:33:39.104Z,14.97
2022-10-20T04:36:09.744Z,15.90
2022-10-20T04:38:38.006Z,15.73
2022-10-20T04:41:06.614Z,15.27
2022-10-20T04:43:35.389Z,15.30
2022-10-20T04:46:08.441Z,15.27
2022-10-20T04:48:37.377Z,15.87
2022-10-20T04:51:07.675Z,15.70
2022-10-20T04:53:36.585Z,16.63
2022-10-20T04:56:06.551Z,15.47
2022-10-20T04:58:35.563Z,16.37
2022-10-20T05:01:07.770Z,16.73
2022-10-20T05:03:36.595Z,17.90
2022-10-20T05:06:13.081Z,20.10
2022-10-20T05:08:42.185Z,19.30
2022-10-20T05:11:11.362Z,18.40
2022-10-20T05:13:39.655Z,18.67
2022-10-20T05:16:10.421Z,18.37
2022-10-20T05:18:39.653Z,16.80
2022-10-20T05:21:10.061Z,17.10
2022-10-20T05:23:39.497Z,17.67
2022-10-20T05:26:12.570Z,16.27
2022-10-20T05:28:43.669Z,16.37
2022-10-20T05:31:13.525Z,17.77
2022-10-20T05:33:45.480Z,16.50
2022-10-20T05:36:19.311Z,16.90
2022-10-20T05:38:52.165Z,16.10
2022-10-20T05:41:22.954Z,16.37
2022-10-20T05:43:52.211Z,15.10
2022-10-20T05:46:22.094Z,15.40
2022-10-20T05:48:53.457Z,15.40
2022-10-20T05:51:24.656Z,14.43
2022-10-20T05:53:55.588Z,15.43
2022-10-20T05:56:25.207Z,13.67
2022-10-20T05:58:53.896Z,14.27
2022-10-20T06:01:26.317Z,12.60
2022-10-20T06:03:56.757Z,13.20
2022-10-20T06:06:26.906Z,12.67
2022-10-20T06:08:55.721Z,12.73
2022-10-20T06:11:24.785Z,14.67
2022-10-20T06:13:53.563Z,15.07
2022-10-20T06:16:25.407Z,24.10
2022-10-20T06:18:54.037Z,25.53
2022-10-20T06:21:24.895Z,25.00
2022-10-20T06:23:53.644Z,20.77
2022-10-20T06:26:23.526Z,17.07
2022-10-20T06:28:53.818Z,15.37
2022-10-20T06:31:25.255Z,13.63
2022-10-20T06:33:54.132Z,13.87
2022-10-20T06:36:23.057Z,14.00
2022-10-20T06:38:55.309Z,13.37
2022-10-20T06:41:24.117Z,14.23
2022-10-20T06:43:58.028Z,14.00
2022-10-20T06:46:29.633Z,13.73
2022-10-20T06:48:58.965Z,12.87
2022-10-20T06:51:27.745Z,12.03
2022-10-20T06:53:56.013Z,12.23
2022-10-20T06:56:27.086Z,11.73
2022-10-20T06:58:57.206Z,11.17
2022-10-20T07:01:28.917Z,11.80
2022-10-20T07:03:59.823Z,11.73
2022-10-20T07:06:30.108Z,10.50
2022-10-20T07:08:59.250Z,11.73
2022-10-20T07:11:29.534Z,11.47
2022-10-20T07:13:59.935Z,11.33
2022-10-20T07:16:31.551Z,10.97
2022-10-20T07:19:00.788Z,11.40
2022-10-20T07:21:35.720Z,9.20
2022-10-20T07:24:07.730Z,10.10
2022-10-20T07:26:37.826Z,10.83
2022-10-20T07:29:06.469Z,11.20
2022-10-20T07:31:38.683Z,9.70
2022-10-20T07:34:27.227Z,10.50
2022-10-20T07:36:56.980Z,8.80
2022-10-20T07:39:26.218Z,9.80
2022-10-20T07:41:54.544Z,9.37
2022-10-20T07:44:22.974Z,8.93
2022-10-20T07:46:52.565Z,9.20
2022-10-20T07:52:09.224Z,9.97
2022-10-20T07:54:37.586Z,10.00
2022-10-20T07:57:05.887Z,8.45
2022-10-20T07:59:34.673Z,9.20
2022-10-20T08:02:04.569Z,8.63
2022-10-20T08:04:33.031Z,8.70
2022-10-20T08:07:01.767Z,8.13
2022-10-20T08:09:30.123Z,8.70
2022-10-20T08:11:58.460Z,9.80
2022-10-20T08:14:30.796Z,9.47
2022-10-20T08:16:59.173Z,9.27
2022-10-20T08:19:38.690Z,9.40
2022-10-20T08:22:07.135Z,9.55
2022-10-20T08:24:35.386Z,9.02
2022-10-20T08:27:04.346Z,9.00
2022-10-20T08:29:32.688Z,9.95
2022-10-20T08:32:00.966Z,9.43
2022-10-20T08:34:30.603Z,8.63
2022-10-20T08:37:00.179Z,9.77
2022-10-20T08:39:28.568Z,9.75
2022-10-20T08:42:13.657Z,9.63
2022-10-20T08:44:45.465Z,9.20
2022-10-20T08:47:29.149Z,9.75
2022-10-20T08:50:03.498Z,10.30
2022-10-20T08:52:32.149Z,10.43
2022-10-20T08:55:00.857Z,8.80
2022-10-20T08:57:34.709Z,9.68
2022-10-20T09:00:15.490Z,9.25
2022-10-20T09:02:44.157Z,9.73
2022-10-20T09:05:18.329Z,9.25
2022-10-20T09:07:50.025Z,9.40
2022-10-20T09:10:33.230Z,10.07
2022-10-20T09:13:02.366Z,9.93
2022-10-20T09:15:30.818Z,9.30
2022-10-20T09:18:02.010Z,9.98
2022-10-20T09:20:35.385Z,8.50
2022-10-20T09:23:07.866Z,8.68
2022-10-20T09:25:46.311Z,9.77
2022-10-20T09:28:23.625Z,8.50
2022-10-20T09:30:52.340Z,8.75
2022-10-20T09:33:32.634Z,9.25
2022-10-20T09:36:06.299Z,8.85
2022-10-20T09:38:36.612Z,8.13
2022-10-20T09:41:11.280Z,7.97
2022-10-20T09:43:42.527Z,8.73
2022-10-20T09:46:12.917Z,8.35
2022-10-20T09:48:43.800Z,9.32
2022-10-20T09:51:19.696Z,8.88
2022-10-20T09:53:56.562Z,9.45
2022-10-20T09:56:30.317Z,7.90
2022-10-20T09:59:00.549Z,7.47
2022-10-20T10:01:29.346Z,7.93
2022-10-20T10:04:01.901Z,7.95
2022-10-20T10:06:41.836Z,8.75
2022-10-20T10:09:34.202Z,9.32
2022-10-20T10:12:05.716Z,9.43
2022-10-20T10:14:36.475Z,9.57
2022-10-20T10:17:05.090Z,10.00
2022-10-20T10:19:35.148Z,9.07
2022-10-20T10:22:05.659Z,8.27
2022-10-20T10:24:46.496Z,9.23
2022-10-20T10:27:24.865Z,8.82
2022-10-20T10:29:53.754Z,8.57
2022-10-20T10:32:27.049Z,8.45
2022-10-20T10:35:22.315Z,8.10
2022-10-20T10:37:53.400Z,9.02
2022-10-20T10:40:25.176Z,8.98
2022-10-20T10:43:08.009Z,9.00
2022-10-20T10:45:50.607Z,8.48
2022-10-20T10:48:42.334Z,7.93
2022-10-20T10:51:16.831Z,8.93
2022-10-20T10:53:56.291Z,8.80
2022-10-20T10:56:34.629Z,8.95
2022-10-20T10:59:11.246Z,9.25
2022-10-20T11:01:55.919Z,8.80
2022-10-20T11:04:44.280Z,9.05
2022-10-20T11:07:23.378Z,7.78
2022-10-20T11:10:03.705Z,9.30
2022-10-20T11:12:56.599Z,9.23
2022-10-20T11:15:40.460Z,9.00
2022-10-20T11:18:18.227Z,8.55
2022-10-20T11:20:57.798Z,8.45
2022-10-20T11:23:47.780Z,8.23
2022-10-20T11:26:28.155Z,7.93
2022-10-20T11:28:58.936Z,8.30
2022-10-20T11:31:31.938Z,8.95
2022-10-20T11:34:06.228Z,9.25
2022-10-20T11:36:39.565Z,8.38
2022-10-20T11:39:18.565Z,8.52
2022-10-20T11:41:50.427Z,8.25
2022-10-20T11:44:26.568Z,8.30
2022-10-20T11:47:01.067Z,8.40
2022-10-20T11:49:30.121Z,8.00
2022-10-20T11:52:17.386Z,8.83
2022-10-20T11:55:06.097Z,7.90
2022-10-20T11:57:56.463Z,8.10
2022-10-20T12:00:47.419Z,7.97
2022-10-20T12:03:48.166Z,8.20
2022-10-20T12:06:40.215Z,8.07
2022-10-20T12:12:01.648Z,8.70
2022-10-20T12:14:38.115Z,9.02
2022-10-20T12:17:28.148Z,8.20
2022-10-20T12:20:50.239Z,8.02
2022-10-20T12:24:04.891Z,8.30
2022-10-20T12:27:05.907Z,8.45
2022-10-20T12:29:56.226Z,8.73
2022-10-20T12:32:46.086Z,8.55
2022-10-20T12:35:54.269Z,8.90
2022-10-20T12:38:23.988Z,8.25
2022-10-20T12:40:57.903Z,8.88
2022-10-20T12:43:36.765Z,7.78
2022-10-20T12:46:10.352Z,8.15
2022-10-20T12:48:46.277Z,7.55
2022-10-20T12:51:22.915Z,7.63
2022-10-20T12:53:58.919Z,7.38
2022-10-20T12:56:33.102Z,7.47
2022-10-20T12:59:38.232Z,8.13
2022-10-20T13:02:33.845Z,8.65
2022-10-20T13:05:24.167Z,8.73
2022-10-20T13:08:04.689Z,8.15
2022-10-20T13:10:35.978Z,7.45
2022-10-20T13:13:46.756Z,8.40
2022-10-20T13:16:21.704Z,9.02
2022-10-20T13:18:53.308Z,8.52
2022-10-20T13:21:31.991Z,8.60
2022-10-20T13:24:14.994Z,8.95
2022-10-20T13:26:51.858Z,9.13
2022-10-20T13:29:25.566Z,8.77
2022-10-20T13:32:06.683Z,9.32
2022-10-20T13:34:42.887Z,8.57
2022-10-20T13:37:34.083Z,8.32
2022-10-20T13:40:18.900Z,8.35
2022-10-20T13:43:06.284Z,8.57
2022-10-20T13:45:49.798Z,8.75
2022-10-20T13:48:29.238Z,8.73
2022-10-20T13:51:01.734Z,8.90
2022-10-20T13:53:33.885Z,9.00
2022-10-20T13:56:06.708Z,10.32
2022-10-20T13:58:36.024Z,11.70
2022-10-20T14:01:06.566Z,10.30
2022-10-20T14:03:43.054Z,10.18
2022-10-20T14:06:31.425Z,12.45
2022-10-20T14:09:09.409Z,11.00
2022-10-20T14:11:37.958Z,11.73
2022-10-20T14:14:06.378Z,10.35
2022-10-20T14:16:34.734Z,11.60
2022-10-20T14:19:05.233Z,11.02
2022-10-20T14:21:42.808Z,11.13
2022-10-20T14:24:17.488Z,10.45
2022-10-20T14:26:46.445Z,19.55
2022-10-20T14:29:18.410Z,12.70
2022-10-20T14:31:48.478Z,28.88
2022-10-20T14:34:22.397Z,25.55
2022-10-20T14:36:54.025Z,9.88
2022-10-20T14:39:31.484Z,23.63
2022-10-20T14:42:01.927Z,9.77
2022-10-20T14:44:31.961Z,22.67
2022-10-20T14:47:05.304Z,122.53
2022-10-20T14:49:38.987Z,59.63
2022-10-20T14:52:22.854Z,27.85
2022-10-20T14:54:52.637Z,21.65
2022-10-20T14:57:41.635Z,14.95
2022-10-20T15:00:29.015Z,21.45
2022-10-20T15:02:58.818Z,19.17
2022-10-20T15:05:39.900Z,17.20
2022-10-20T15:08:12.595Z,20.73
2022-10-20T15:10:40.909Z,18.17
2022-10-20T15:13:26.458Z,18.27
2022-10-20T15:15:57.028Z,15.40
2022-10-20T15:18:25.878Z,12.90
2022-10-20T15:20:55.078Z,13.07
2022-10-20T15:23:26.950Z,13.23
2022-10-20T15:25:59.287Z,12.83
2022-10-20T15:28:34.896Z,13.33
2022-10-20T15:31:06.258Z,12.60
2022-10-20T15:33:34.600Z,13.83
2022-10-20T15:36:02.970Z,13.63
2022-10-20T15:38:32.622Z,14.73
2022-10-20T15:41:02.690Z,15.73
2022-10-20T15:43:30.985Z,16.00
2022-10-20T15:45:59.232Z,14.10
2022-10-20T15:48:27.489Z,13.57
2022-10-20T15:50:56.514Z,16.33
2022-10-20T15:53:24.717Z,15.83
2022-10-20T15:55:54.358Z,14.53
2022-10-20T15:58:22.715Z,15.33
2022-10-20T16:00:51.143Z,14.53
2022-10-20T16:03:20.095Z,14.03
2022-10-20T16:05:48.576Z,13.80
2022-10-20T16:08:16.898Z,11.90
2022-10-20T16:10:45.190Z,13.33
2022-10-20T16:13:15.867Z,12.70
2022-10-20T16:15:44.287Z,12.20
2022-10-20T16:18:12.551Z,14.60
2022-10-20T16:20:40.899Z,18.37
2022-10-20T16:23:09.188Z,19.83
2022-10-20T16:25:40.895Z,17.47
2022-10-20T16:28:09.878Z,20.07
2022-10-20T16:30:39.519Z,15.87
2022-10-20T16:33:07.817Z,16.17
2022-10-20T16:35:36.060Z,15.47
2022-10-20T16:38:04.429Z,15.03
2022-10-20T16:40:32.692Z,16.53
2022-10-20T16:43:01.451Z,16.33
2022-10-20T16:45:29.828Z,15.83
2022-10-20T16:47:59.375Z,47.67
2022-10-20T16:50:27.699Z,94.27
2022-10-20T16:52:55.941Z,53.67
2022-10-20T16:55:24.232Z,45.97
2022-10-20T16:57:55.819Z,37.20
2022-10-20T17:00:24.098Z,34.33
2022-10-20T17:02:56.350Z,31.87
2022-10-20T17:05:26.952Z,26.80
2022-10-20T17:07:55.468Z,26.97
2022-10-20T17:10:23.832Z,26.00
2022-10-20T17:12:52.208Z,24.77
2022-10-20T17:15:20.560Z,24.30
2022-10-20T17:17:48.785Z,21.47
2022-10-20T17:20:17.085Z,21.77
2022-10-20T17:22:46.671Z,21.17
2022-10-20T17:25:15.118Z,21.93
2022-10-20T17:27:43.365Z,22.23
2022-10-20T17:30:14.021Z,18.87
2022-10-20T17:32:43.138Z,18.23
2022-10-20T17:35:12.607Z,18.57
2022-10-20T17:37:40.887Z,18.87
2022-10-20T17:40:11.200Z,21.23
2022-10-20T17:42:39.815Z,25.43
2022-10-20T17:45:09.070Z,20.87
2022-10-20T17:47:37.305Z,23.73
2022-10-20T17:50:06.256Z,21.63
2022-10-20T17:52:34.911Z,21.93
2022-10-20T17:55:03.385Z,26.83
2022-10-20T17:57:47.088Z,30.63
2022-10-20T18:00:22.928Z,30.00
2022-10-20T18:03:00.341Z,28.10
2022-10-20T18:05:28.696Z,24.23
2022-10-20T18:07:57.020Z,19.47
2022-10-20T18:10:25.257Z,18.63
2022-10-20T18:12:54.802Z,18.47
2022-10-20T18:15:23.154Z,17.50
2022-10-20T18:17:51.377Z,15.87
2022-10-20T18:20:19.669Z,16.00
2022-10-20T18:22:48.027Z,15.53
2022-10-20T18:25:16.438Z,15.67
2022-10-20T18:27:44.662Z,15.57
2022-10-20T18:30:14.348Z,15.53
2022-10-20T18:32:42.656Z,15.40
2022-10-20T18:35:11.260Z,15.30
2022-10-20T18:37:40.102Z,24.90
2022-10-20T18:40:09.857Z,40.03
2022-10-20T18:42:38.219Z,31.47
2022-10-20T18:45:06.967Z,49.57
2022-10-20T18:47:36.857Z,43.17
2022-10-20T18:50:05.707Z,40.20
2022-10-20T18:52:34.777Z,31.33
2022-10-20T18:55:03.275Z,31.33
2022-10-20T18:57:33.086Z,26.40
2022-10-20T19:00:01.390Z,25.53
2022-10-20T19:02:31.286Z,18.43
2022-10-20T19:05:00.806Z,18.67
2022-10-20T19:07:29.097Z,18.03
2022-10-20T19:09:57.398Z,18.27
2022-10-20T19:12:27.196Z,17.23
2022-10-20T19:14:55.729Z,16.87
2022-10-20T19:17:24.015Z,16.27
2022-10-20T19:19:54.076Z,16.13
2022-10-20T19:22:26.993Z,16.53
2022-10-20T19:24:57.612Z,15.43
2022-10-20T19:27:27.129Z,14.50
2022-10-20T19:29:56.318Z,15.17
2022-10-20T19:32:24.640Z,15.60
2022-10-20T19:34:52.918Z,15.03
2022-10-20T19:37:21.217Z,15.00
2022-10-20T19:39:50.939Z,14.67
2022-10-20T19:42:19.417Z,15.57
2022-10-20T19:44:48.170Z,16.23
2022-10-20T19:47:16.805Z,15.60
2022-10-20T19:49:45.309Z,17.23
2022-10-20T19:52:13.656Z,16.67
2022-10-20T19:54:41.879Z,19.33
2022-10-20T19:57:11.685Z,19.93
2022-10-20T19:59:40.034Z,19.67
2022-10-20T20:02:08.772Z,23.57
2022-10-20T20:04:37.117Z,26.00
2022-10-20T20:07:05.588Z,23.30
2022-10-20T20:09:34.358Z,20.53
2022-10-20T20:12:02.704Z,19.23
2022-10-20T20:14:32.334Z,17.47
2022-10-20T20:17:00.676Z,16.37
2022-10-20T20:19:29.229Z,16.53
2022-10-20T20:21:57.800Z,17.87
2022-10-20T20:24:26.039Z,16.27
2022-10-20T20:26:54.369Z,19.80
2022-10-20T20:29:22.747Z,20.60
2022-10-20T20:31:52.332Z,24.43
2022-10-20T20:34:20.697Z,22.50
2022-10-20T20:36:48.917Z,19.60
2022-10-20T20:39:17.174Z,21.17
2022-10-20T20:41:45.538Z,20.17
2022-10-20T20:44:13.781Z,21.90
2022-10-20T20:46:42.168Z,22.17
2022-10-20T20:49:11.787Z,23.30
2022-10-20T20:51:40.078Z,24.37
2022-10-20T20:54:08.967Z,22.47
2022-10-20T20:56:37.746Z,21.63
2022-10-20T20:59:05.988Z,23.87
2022-10-20T21:01:34.379Z,26.60
2022-10-20T21:04:04.552Z,28.60
2022-10-20T21:06:56.512Z,31.60
2022-10-20T21:09:22.462Z,29.60
2022-10-20T21:11:50.996Z,30.23
2022-10-20T21:14:19.515Z,45.93
2022-10-20T21:16:47.868Z,42.13
2022-10-20T21:19:16.177Z,35.27
2022-10-20T21:21:50.712Z,46.03
2022-10-20T21:24:19.647Z,29.63
2022-10-20T21:26:48.795Z,29.17
2022-10-20T21:29:17.256Z,26.70
2022-10-20T21:31:45.490Z,26.03
2022-10-20T21:34:13.879Z,25.27
2022-10-20T21:36:42.359Z,23.40
2022-10-20T21:39:15.835Z,24.37
2022-10-20T21:41:45.482Z,23.40
2022-10-20T21:44:14.953Z,24.60
2022-10-20T21:46:47.583Z,24.97
2022-10-20T21:49:18.329Z,25.90
2022-10-20T21:51:48.309Z,26.90
2022-10-20T21:56:48.241Z,27.60
2022-10-20T21:59:19.447Z,31.63
2022-10-20T22:01:48.692Z,25.50
2022-10-20T22:04:17.502Z,25.30
2022-10-20T22:06:45.835Z,28.73
2022-10-20T22:09:15.454Z,26.77
2022-10-20T22:11:50.250Z,26.03
2022-10-20T22:14:18.707Z,28.97
2022-10-20T22:16:47.008Z,38.97
2022-10-20T22:19:18.096Z,32.87
2022-10-20T22:21:48.593Z,28.27
2022-10-20T22:24:18.727Z,45.97
2022-10-20T22:26:51.564Z,48.77
2022-10-20T22:29:20.599Z,52.27
2022-10-20T22:31:49.498Z,48.03
2022-10-20T22:34:17.858Z,36.93
2022-10-20T22:36:46.171Z,40.00
2022-10-20T22:39:15.172Z,37.80
2022-10-20T22:41:43.592Z,29.60
2022-10-20T22:44:13.368Z,24.20
2022-10-20T22:46:41.618Z,24.33
2022-10-20T22:49:09.937Z,22.37
2022-10-20T22:51:38.180Z,27.03
2022-10-20T22:54:08.121Z,23.50
2022-10-20T22:56:36.460Z,24.77
2022-10-20T22:59:04.857Z,23.53
2022-10-20T23:01:34.423Z,22.60
2022-10-20T23:04:02.757Z,22.83
2022-10-20T23:06:31.071Z,23.37
2022-10-20T23:08:59.392Z,22.63
2022-10-20T23:11:27.673Z,22.47
2022-10-20T23:13:56.007Z,21.37
2022-10-20T23:18:54.648Z,19.60
2022-10-20T23:21:22.956Z,19.67
2022-10-20T23:23:51.267Z,19.87
2022-10-20T23:26:19.659Z,19.67
2022-10-20T23:28:48.779Z,19.40
2022-10-20T23:31:19.078Z,18.67
2022-10-20T23:33:48.795Z,19.30
2022-10-20T23:36:18.684Z,18.70
2022-10-20T23:38:47.659Z,19.97
2022-10-20T23:41:16.135Z,19.20
2022-10-20T23:43:44.624Z,19.63
2022-10-20T23:46:13.317Z,21.93
2022-10-20T23:48:41.976Z,22.70
2022-10-20T23:51:10.528Z,21.47
2022-10-20T23:53:40.205Z,21.13
2022-10-20T23:56:08.675Z,20.70
2022-10-20T23:58:37.305Z,20.20
